Hamilton, Arkansas
Current Conditions -  °F | °C
As of 2:35 AM on Tuesday 21 Oct 2014 (Local Time) from KSGT Reporting Station
Clear Clear  
Wind Chill: 55°   Ceiling: Unl
Heat Index: 55°   Visibility: 8mi
Dew Point: 52°   Wind: 7mph
Humidity: 88%   Direction: 230°SW
Pressure: 30.05"   Gusts: NA
Location:  34.8142°N, 91.7503°W
Report Text: KSGT 210735Z AUTO 23006KT 8SM CLR 13/11 A3005 RMK AO1
Loading
Personal Weather Stations






























Interactive Weather Map
Tropical Storm Tracking
New forecast layout! Learn more

10-Day Weather Forecast

Advertisements
Track Severe Weather on mobile